Time;durP1;ratioP1;P1;durP2;ratioP2;P2;SDS_P1;SDS_P2;PMS_P1;PMS_P2;Temp;Humidity;BMP_temperature;BMP_pressure;BME280_temperature;BME280_humidity;BME280_pressure;Samples;Min_cycle;Max_cycle;Signal;HPM_P1;HPM_P2
2022/06/22 00:02:42;;;;;;;8.50;3.80;;;;;;;16.74;50.97;98618.88;232903;1222;139590;-54
2022/06/22 00:07:51;;;;;;;9.40;3.90;;;;;;;16.68;50.93;98613.19;233274;1222;138936;-55
2022/06/22 00:12:57;;;;;;;6.00;4.20;;;;;;;16.65;51.19;98604.85;233213;1222;138545;-54
2022/06/22 00:18:02;;;;;;;7.80;4.10;;;;;;;16.63;51.29;98597.15;233440;1222;138065;-53
2022/06/22 00:23:24;;;;;;;8.80;4.80;;;;;;;16.58;51.46;98589.39;233115;1222;139221;-54
2022/06/22 00:28:32;;;;;;;7.40;4.40;;;;;;;16.51;51.60;98594.69;233057;1223;139559;-52
2022/06/22 00:33:34;;;;;;;7.00;4.30;;;;;;;16.49;51.78;98598.40;232966;1222;139156;-54
2022/06/22 00:38:38;;;;;;;9.50;4.70;;;;;;;16.48;51.84;98606.83;233124;1222;138409;-53
2022/06/22 00:43:41;;;;;;;10.60;5.10;;;;;;;16.46;51.74;98612.77;233163;1222;138575;-55
2022/06/22 00:48:47;;;;;;;9.10;4.10;;;;;;;16.44;52.04;98629.02;232909;1222;138914;-55
2022/06/22 00:53:58;;;;;;;8.90;3.90;;;;;;;16.41;51.93;98635.89;233116;1223;138942;-55
2022/06/22 00:59:14;;;;;;;10.10;4.30;;;;;;;16.39;52.02;98639.14;232916;1222;141250;-53
2022/06/22 01:04:22;;;;;;;;;;;;;;;16.38;52.36;98643.66;232846;1223;139132;-54
2022/06/22 01:09:46;;;;;;;7.70;3.70;;;;;;;16.34;52.33;98646.58;232724;1224;125672;-52
2022/06/22 01:15:17;;;;;;;7.10;3.90;;;;;;;16.29;52.53;98664.75;232760;1223;138919;-54
2022/06/22 01:20:26;;;;;;;8.40;4.10;;;;;;;16.27;52.57;98673.88;232716;1223;138739;-55
2022/06/22 01:25:49;;;;;;;8.90;4.10;;;;;;;16.23;52.67;98669.44;232851;1223;138930;-53
2022/06/22 01:30:55;;;;;;;7.80;4.70;;;;;;;16.18;52.54;98675.42;232888;1223;138662;-52
2022/06/22 01:36:22;;;;;;;6.70;3.80;;;;;;;16.15;52.70;98670.90;232594;1223;138690;-60
2022/06/22 01:41:59;;;;;;;9.10;4.30;;;;;;;16.11;52.82;98672.17;232882;1222;141231;-60
2022/06/22 01:47:24;;;;;;;8.40;4.40;;;;;;;15.98;52.76;98669.55;232804;1222;140957;-60
2022/06/22 01:52:55;;;;;;;8.70;4.80;;;;;;;15.93;52.98;98678.20;232173;1223;138423;-59
2022/06/22 01:58:17;;;;;;;9.20;5.80;;;;;;;15.90;53.20;98675.86;232051;1224;138641;-58
2022/06/22 02:03:26;;;;;;;7.90;5.70;;;;;;;15.88;53.27;98681.55;232969;1221;139297;-57
2022/06/22 02:08:40;;;;;;;9.00;6.30;;;;;;;15.82;53.36;98681.34;232647;1224;139454;-58
2022/06/22 02:13:56;;;;;;;9.30;5.70;;;;;;;15.78;53.52;98687.09;232883;1223;140136;-59
2022/06/22 02:18:59;;;;;;;10.00;6.20;;;;;;;15.77;53.65;98688.77;232870;1223;139084;-57
2022/06/22 02:24:15;;;;;;;9.80;6.40;;;;;;;15.80;53.62;98693.91;232827;1224;138510;-58
2022/06/22 02:29:20;;;;;;;;;;;;;;;15.78;53.76;98694.64;232961;1222;139862;-59
2022/06/22 02:34:24;;;;;;;8.10;5.40;;;;;;;15.73;53.82;98693.98;232717;1222;124778;-59
2022/06/22 02:39:29;;;;;;;10.00;5.20;;;;;;;15.69;54.01;98690.05;232588;1224;138323;-55
2022/06/22 02:44:35;;;;;;;13.60;6.20;;;;;;;15.63;54.00;98693.42;232653;1224;139202;-57
2022/06/22 02:49:45;;;;;;;8.00;5.20;;;;;;;15.60;54.05;98702.95;233097;1222;139339;-56
2022/06/22 02:54:53;;;;;;;7.80;4.70;;;;;;;15.57;54.20;98711.12;232285;1223;138783;-56
2022/06/22 02:59:58;;;;;;;8.90;4.70;;;;;;;15.56;54.21;98719.04;232171;1223;138449;-54
2022/06/22 03:05:05;;;;;;;8.40;4.60;;;;;;;15.55;54.30;98727.39;232380;1224;139184;-52
2022/06/22 03:10:23;;;;;;;9.50;4.50;;;;;;;15.52;54.33;98721.89;232671;1224;138938;-53
2022/06/22 03:15:32;;;;;;;7.00;4.20;;;;;;;15.54;54.37;98728.46;233141;1222;138617;-53
2022/06/22 03:20:45;;;;;;;8.20;5.00;;;;;;;15.58;54.40;98739.26;233124;1222;139120;-56
2022/06/22 03:25:58;;;;;;;11.30;5.40;;;;;;;15.61;54.42;98742.58;232868;1224;138450;-51
2022/06/22 03:31:06;;;;;;;8.70;5.20;;;;;;;15.63;54.46;98754.43;232704;1224;139442;-56
2022/06/22 03:36:29;;;;;;;11.30;5.00;;;;;;;15.64;54.42;98758.59;232859;1223;138575;-55
2022/06/22 03:41:39;;;;;;;10.90;5.30;;;;;;;15.65;54.42;98757.84;232697;1223;139285;-56
2022/06/22 03:46:47;;;;;;;11.30;5.60;;;;;;;15.70;54.71;98757.73;232751;1224;139090;-59
2022/06/22 03:52:00;;;;;;;14.40;5.20;;;;;;;15.81;54.57;98754.77;232616;1224;139736;-56
2022/06/22 03:57:07;;;;;;;10.30;5.60;;;;;;;15.89;54.70;98740.35;232652;1222;140122;-59
2022/06/22 04:02:11;;;;;;;11.20;5.30;;;;;;;15.98;54.63;98741.98;232991;1222;139876;-57
2022/06/22 04:07:14;;;;;;;14.70;5.70;;;;;;;16.03;54.60;98734.38;233354;1222;139855;-58
2022/06/22 04:12:26;;;;;;;13.00;5.50;;;;;;;16.21;54.63;98738.39;232851;1222;139561;-58
2022/06/22 04:17:33;;;;;;;10.60;5.30;;;;;;;16.37;54.60;98727.02;233161;1222;139095;-56
2022/06/22 04:22:41;;;;;;;10.30;4.80;;;;;;;16.46;54.35;98722.90;232925;1223;138707;-58
2022/06/22 04:27:50;;;;;;;9.00;4.70;;;;;;;16.51;54.01;98733.85;233296;1222;138675;-58
2022/06/22 04:33:05;;;;;;;10.50;4.10;;;;;;;16.55;54.21;98725.74;233281;1222;138852;-55
2022/06/22 04:38:08;;;;;;;10.60;3.60;;;;;;;16.65;54.06;98728.58;233299;1222;139174;-57
2022/06/22 04:43:11;;;;;;;6.60;3.40;;;;;;;16.80;53.90;98730.11;232928;1223;139303;-57
2022/06/22 04:48:24;;;;;;;11.00;3.60;;;;;;;16.92;53.87;98741.36;233119;1223;138693;-57
2022/06/22 04:53:59;;;;;;;12.20;3.90;;;;;;;17.11;53.86;98749.67;232903;1221;139436;-57
2022/06/22 04:59:04;;;;;;;89.80;73.50;;;;;;;17.29;53.94;98755.27;233075;1222;138228;-56
2022/06/22 05:04:12;;;;;;;;;;;;;;;17.48;53.84;98749.56;233357;1222;139524;-57
2022/06/22 05:09:26;;;;;;;10.50;5.20;;;;;;;17.61;53.97;98761.21;233382;1223;125285;-56
2022/06/22 05:14:32;;;;;;;10.80;4.50;;;;;;;17.74;53.59;98759.98;232741;1222;138930;-58
2022/06/22 05:19:42;;;;;;;232.50;200.60;;;;;;;17.88;53.47;98754.85;233334;1222;138864;-54
2022/06/22 05:24:55;;;;;;;12.70;9.00;;;;;;;17.96;53.51;98757.55;233075;1223;140120;-58
2022/06/22 05:30:02;;;;;;;29.90;18.40;;;;;;;17.99;53.23;98759.39;232948;1222;139649;-58
2022/06/22 05:35:10;;;;;;;26.10;18.90;;;;;;;18.09;53.17;98770.40;233016;1223;138814;-57
2022/06/22 05:40:14;;;;;;;7.10;4.80;;;;;;;18.31;53.40;98770.42;233251;1223;234339;-59
2022/06/22 05:45:21;;;;;;;13.00;5.70;;;;;;;18.54;53.41;98772.64;233139;1222;138379;-59
2022/06/22 05:50:51;;;;;;;9.10;4.00;;;;;;;18.73;53.46;98780.45;233010;1222;138630;-60
2022/06/22 05:56:12;;;;;;;7.50;3.50;;;;;;;18.90;52.71;98791.52;232388;1222;138907;-59
2022/06/22 06:01:41;;;;;;;8.00;4.50;;;;;;;18.95;52.43;98792.38;233327;1223;138698;-56
2022/06/22 06:06:44;;;;;;;8.80;4.10;;;;;;;18.96;52.38;98797.77;232765;1223;139253;-57
2022/06/22 06:12:07;;;;;;;33.10;24.10;;;;;;;18.99;52.40;98797.34;233195;1222;138865;-57
2022/06/22 06:17:15;;;;;;;10.50;6.20;;;;;;;19.07;52.36;98793.06;232971;1222;139328;-57
2022/06/22 06:22:22;;;;;;;9.90;3.80;;;;;;;19.12;52.03;98783.21;233002;1223;138847;-54
2022/06/22 06:27:35;;;;;;;9.30;3.60;;;;;;;19.18;51.90;98773.15;233032;1223;138883;-54
2022/06/22 06:33:25;;;;;;;6.10;3.40;;;;;;;19.24;51.70;98768.52;233199;1222;138850;-58
2022/06/22 06:38:37;;;;;;;65.90;48.30;;;;;;;19.24;51.18;98773.17;232975;1223;138481;-57
2022/06/22 06:43:53;;;;;;;5.70;3.30;;;;;;;19.21;51.40;98766.64;233183;1223;138943;-57
2022/06/22 06:49:15;;;;;;;7.60;2.90;;;;;;;19.19;51.06;98763.59;232832;1224;139025;-58
2022/06/22 06:54:32;;;;;;;6.20;2.80;;;;;;;19.11;51.02;98758.42;233232;1223;138755;-57
2022/06/22 06:59:36;;;;;;;6.50;4.60;;;;;;;19.08;51.02;98768.34;233219;1223;139209;-58
2022/06/22 07:04:39;;;;;;;5.50;2.90;;;;;;;19.09;51.00;98786.71;233170;1223;138510;-57
2022/06/22 07:09:42;;;;;;;5.80;3.10;;;;;;;19.10;51.04;98780.48;232983;1223;138535;-56
2022/06/22 07:14:45;;;;;;;7.30;3.20;;;;;;;19.11;51.02;98785.34;232865;1224;139833;-54
2022/06/22 07:19:56;;;;;;;98.00;72.90;;;;;;;19.10;50.83;98779.97;233060;1223;139098;-57
2022/06/22 07:25:19;;;;;;;6.70;4.70;;;;;;;19.21;51.09;98769.87;231664;1222;138888;-56
2022/06/22 07:30:31;;;;;;;7.90;2.90;;;;;;;19.21;50.94;98758.17;232869;1223;140154;-58
2022/06/22 07:35:44;;;;;;;5.00;2.20;;;;;;;19.28;50.67;98758.73;233158;1223;138658;-58
2022/06/22 07:46:16;;;;;;;6.10;3.90;;;;;;;19.52;50.26;98764.90;233165;1223;138915;-57
2022/06/22 07:51:29;;;;;;;3.30;2.60;;;;;;;19.64;50.11;98744.60;233194;1223;139162;-56
2022/06/22 07:56:52;;;;;;;3.70;2.40;;;;;;;19.70;49.90;98737.11;233402;1222;138998;-59
2022/06/22 08:02:02;;;;;;;3.10;1.80;;;;;;;19.85;49.82;98735.75;232517;1223;138865;-57
2022/06/22 08:07:10;;;;;;;6.60;3.20;;;;;;;19.91;49.50;98740.52;232965;1223;138624;-60
2022/06/22 08:12:23;;;;;;;7.90;2.70;;;;;;;19.97;49.57;98729.23;233008;1223;140601;-60
2022/06/22 08:17:27;;;;;;;7.00;2.40;;;;;;;20.07;49.51;98733.69;232849;1224;139148;-60
2022/06/22 08:22:30;;;;;;;5.20;1.90;;;;;;;20.20;49.41;98738.19;232951;1223;139489;-57
2022/06/22 08:27:34;;;;;;;3.50;2.00;;;;;;;20.26;49.00;98732.64;233055;1224;138937;-58
2022/06/22 08:32:48;;;;;;;5.70;1.90;;;;;;;20.36;48.68;98725.87;232449;1224;138554;-59
2022/06/22 08:38:08;;;;;;;4.40;1.80;;;;;;;20.51;48.79;98723.83;232524;1223;138648;-60
2022/06/22 08:43:23;;;;;;;5.70;1.60;;;;;;;20.60;48.25;98725.23;232744;1223;138836;-60
2022/06/22 08:48:44;;;;;;;4.20;1.80;;;;;;;20.67;47.75;98737.41;232760;1223;138525;-58
2022/06/22 08:54:03;;;;;;;7.30;4.60;;;;;;;20.84;48.02;98734.55;233063;1221;138640;-59
2022/06/22 08:59:39;;;;;;;2.50;1.60;;;;;;;20.92;47.36;98730.34;233144;1222;139132;-57
2022/06/22 09:04:57;;;;;;;3.70;1.40;;;;;;;21.02;46.86;98736.52;233057;1222;138678;-54
2022/06/22 09:10:14;;;;;;;11.10;6.20;;;;;;;21.14;46.54;98736.09;233042;1223;139052;-58
2022/06/22 09:15:34;;;;;;;75.40;56.20;;;;;;;21.21;46.27;98729.52;233021;1223;139325;-56
2022/06/22 09:21:04;;;;;;;12.30;9.10;;;;;;;21.44;46.48;98725.92;233085;1223;140278;-58
2022/06/22 09:26:53;;;;;;;4.40;2.30;;;;;;;21.68;45.96;98723.15;233022;1223;140413;-59
2022/06/22 09:32:15;;;;;;;6.50;4.80;;;;;;;21.81;45.21;98717.88;233040;1222;140613;-55
2022/06/22 09:37:34;;;;;;;6.20;1.20;;;;;;;21.98;44.91;98720.05;233096;1222;138376;-53
2022/06/22 09:43:06;;;;;;;4.90;2.50;;;;;;;22.17;43.95;98722.28;233041;1223;138429;-56
2022/06/22 09:48:36;;;;;;;5.00;3.20;;;;;;;22.37;43.73;98724.99;233118;1222;138640;-55
2022/06/22 09:54:00;;;;;;;369.20;243.90;;;;;;;22.51;43.41;98716.59;232967;1223;138599;-58
2022/06/22 09:59:29;;;;;;;171.00;136.40;;;;;;;22.70;43.05;98711.81;232931;1221;139562;-57
2022/06/22 10:04:54;;;;;;;8.00;6.00;;;;;;;22.87;42.28;98700.93;232918;1222;139686;-54
2022/06/22 10:10:08;;;;;;;2.30;1.40;;;;;;;22.99;41.57;98696.27;233007;1223;138944;-54
2022/06/22 10:15:32;;;;;;;2.80;0.90;;;;;;;23.13;41.14;98685.91;232996;1222;139076;-55
2022/06/22 10:21:03;;;;;;;1.60;0.80;;;;;;;23.35;40.39;98685.88;232993;1223;138682;-56
2022/06/22 10:26:23;;;;;;;3.10;1.10;;;;;;;23.55;39.73;98680.19;233058;1223;139786;-57
2022/06/22 10:31:34;;;;;;;26.50;23.80;;;;;;;23.79;39.72;98687.16;233000;1223;138449;-54
2022/06/22 10:36:53;;;;;;;21.10;18.40;;;;;;;23.99;39.05;98687.05;232938;1223;139517;-57
2022/06/22 10:47:35;;;;;;;66.70;53.60;;;;;;;24.37;38.40;98678.71;232991;1222;138648;-53
2022/06/22 10:52:43;;;;;;;6.60;2.90;;;;;;;24.45;38.08;98674.41;232877;1223;139384;-54
2022/06/22 10:57:58;;;;;;;4.50;1.30;;;;;;;24.44;37.76;98661.98;232789;1223;139163;-55
2022/06/22 11:03:32;;;;;;;3.10;1.40;;;;;;;24.46;37.63;98659.26;232775;1222;138795;-55
2022/06/22 11:08:53;;;;;;;3.30;1.30;;;;;;;24.53;37.49;98657.48;232803;1222;140099;-53
2022/06/22 11:14:20;;;;;;;3.30;1.10;;;;;;;24.78;37.58;98672.05;232742;1223;139780;-53
2022/06/22 11:19:45;;;;;;;1.80;1.00;;;;;;;25.04;37.21;98672.94;232838;1222;139224;-54
2022/06/22 11:25:15;;;;;;;2.60;1.30;;;;;;;25.37;37.17;98672.68;232758;1222;139348;-54
2022/06/22 11:36:01;;;;;;;9.60;7.10;;;;;;;25.46;36.77;98660.42;232711;1223;138563;-57
2022/06/22 11:41:19;;;;;;;4.60;1.30;;;;;;;25.64;36.62;98661.02;232600;1223;138497;-56
2022/06/22 11:46:56;;;;;;;3.00;1.10;;;;;;;25.71;36.07;98659.33;232823;1222;139163;-57
2022/06/22 11:52:21;;;;;;;3.30;1.40;;;;;;;25.93;36.23;98651.89;232646;1223;138803;-55
2022/06/22 11:57:39;;;;;;;2.00;1.30;;;;;;;26.27;35.86;98653.10;232635;1224;139201;-57
2022/06/22 12:02:57;;;;;;;2.40;1.10;;;;;;;26.46;35.54;98658.31;232723;1222;138329;-57
2022/06/22 12:08:03;;;;;;;4.10;1.20;;;;;;;26.61;35.05;98652.52;233105;1222;139576;-61
2022/06/22 12:13:37;;;;;;;4.10;0.90;;;;;;;26.83;34.88;98661.49;232790;1222;138690;-58
2022/06/22 12:18:53;;;;;;;3.20;1.30;;;;;;;26.89;34.17;98650.79;232503;1224;138732;-57
2022/06/22 12:24:28;;;;;;;2.10;1.10;;;;;;;27.07;34.18;98662.77;232760;1222;138350;-58
2022/06/22 12:29:44;;;;;;;4.50;1.40;;;;;;;27.23;34.02;98661.28;232783;1221;138748;-55
2022/06/22 12:35:05;;;;;;;4.20;1.10;;;;;;;27.56;34.50;98664.88;232653;1222;138548;-56
2022/06/22 12:40:20;;;;;;;4.20;1.20;;;;;;;27.69;33.81;98657.77;232830;1222;138529;-55
2022/06/22 12:45:52;;;;;;;3.60;0.90;;;;;;;27.93;33.40;98668.45;232633;1222;139295;-57
2022/06/22 12:51:00;;;;;;;2.10;0.80;;;;;;;28.10;33.09;98663.39;232211;1224;138423;-57
2022/06/22 12:56:12;;;;;;;3.50;1.00;;;;;;;28.20;32.92;98657.23;232639;1223;139580;-57
2022/06/22 13:01:16;;;;;;;3.50;1.00;;;;;;;28.14;32.56;98647.33;232690;1224;138921;-57
2022/06/22 13:06:24;;;;;;;3.30;1.00;;;;;;;27.74;32.78;98655.45;232490;1222;138275;-57
2022/06/22 13:11:29;;;;;;;5.30;1.30;;;;;;;27.86;32.78;98643.02;232712;1222;140961;-57
2022/06/22 13:16:51;;;;;;;4.10;1.40;;;;;;;27.78;32.11;98635.64;232632;1222;139602;-57
2022/06/22 13:22:03;;;;;;;3.80;1.20;;;;;;;27.42;32.21;98632.02;232640;1223;138792;-58
2022/06/22 13:27:24;;;;;;;4.00;1.20;;;;;;;27.42;32.44;98627.58;232562;1222;138718;-57
2022/06/22 13:32:31;;;;;;;3.60;1.00;;;;;;;27.67;32.63;98637.09;232572;1223;138585;-55
2022/06/22 13:37:50;;;;;;;7.20;1.20;;;;;;;27.93;32.28;98630.08;232701;1223;139385;-54
2022/06/22 13:43:17;;;;;;;2.50;1.20;;;;;;;28.18;32.49;98618.80;232953;1222;140439;-56
2022/06/22 13:48:35;;;;;;;3.10;1.00;;;;;;;28.24;32.17;98628.38;232599;1223;139442;-54
2022/06/22 13:54:01;;;;;;;4.40;1.10;;;;;;;28.35;32.04;98632.01;232427;1221;138549;-54
2022/06/22 13:59:11;;;;;;;;;;;;;;;28.66;32.11;98639.05;232846;1222;139765;-55
2022/06/22 14:04:40;;;;;;;4.20;1.10;;;;;;;28.94;31.93;98627.23;233019;1222;124837;-56
2022/06/22 14:10:00;;;;;;;6.70;1.30;;;;;;;29.21;31.74;98637.36;232887;1222;139899;-56
2022/06/22 14:15:28;;;;;;;3.30;1.10;;;;;;;29.33;30.90;98632.56;232869;1222;138718;-54
2022/06/22 14:20:40;;;;;;;3.60;1.00;;;;;;;29.34;30.64;98631.66;232652;1222;138956;-54
2022/06/22 14:26:03;;;;;;;3.00;0.90;;;;;;;29.10;30.19;98632.34;232742;1222;139325;-55
2022/06/22 14:31:16;;;;;;;2.40;1.40;;;;;;;28.69;29.97;98613.73;232804;1222;138887;-56
2022/06/22 14:36:28;;;;;;;4.40;1.20;;;;;;;28.28;29.96;98624.52;232492;1222;138950;-55
2022/06/22 14:41:39;;;;;;;3.90;1.10;;;;;;;27.84;30.03;98623.33;232807;1222;139542;-56
2022/06/22 14:47:23;;;;;;;2.70;1.20;;;;;;;27.60;30.46;98629.96;232454;1223;139483;-56
2022/06/22 14:52:48;;;;;;;3.80;2.40;;;;;;;27.32;30.31;98627.38;232396;1222;138976;-58
2022/06/22 14:58:15;;;;;;;4.90;1.50;;;;;;;27.02;30.33;98622.63;232719;1222;138718;-56
2022/06/22 15:03:24;;;;;;;3.30;1.50;;;;;;;26.83;30.65;98605.61;232443;1221;138763;-51
2022/06/22 15:08:41;;;;;;;6.90;3.30;;;;;;;26.65;30.75;98610.45;232542;1222;138911;-55
2022/06/22 15:13:51;;;;;;;7.50;1.60;;;;;;;26.36;31.09;98612.80;232575;1222;138267;-53
2022/06/22 15:19:12;;;;;;;4.20;1.40;;;;;;;26.15;31.62;98603.15;232385;1223;139888;-56
2022/06/22 15:24:20;;;;;;;4.00;1.10;;;;;;;25.94;31.94;98611.02;232604;1222;138431;-55
2022/06/22 15:29:30;;;;;;;4.60;1.20;;;;;;;25.99;31.90;98611.46;232537;1222;140495;-51
2022/06/22 15:34:43;;;;;;;7.80;3.30;;;;;;;25.93;32.07;98600.99;232632;1222;138759;-54
2022/06/22 15:40:13;;;;;;;87.10;73.90;;;;;;;25.91;31.73;98605.23;232462;1223;139165;-54
2022/06/22 15:45:31;;;;;;;4.40;2.60;;;;;;;25.92;31.74;98594.23;233289;1222;139004;-50
2022/06/22 15:51:06;;;;;;;2.60;1.30;;;;;;;25.73;32.55;98596.74;233384;1222;138436;-55
2022/06/22 15:56:28;;;;;;;5.00;1.80;;;;;;;25.59;32.85;98591.89;233280;1222;139073;-57
2022/06/22 16:01:46;;;;;;;3.70;1.60;;;;;;;25.39;33.24;98581.73;233497;1222;138893;-57
2022/06/22 16:07:15;;;;;;;3.30;1.30;;;;;;;25.23;33.72;98571.88;233445;1221;138659;-56
2022/06/22 16:18:16;;;;;;;2.90;1.50;;;;;;;25.01;34.10;98562.73;233453;1222;138930;-55
2022/06/22 16:23:25;;;;;;;3.80;1.00;;;;;;;24.97;34.00;98564.05;233493;1222;139980;-53
2022/06/22 16:28:44;;;;;;;5.30;2.30;;;;;;;24.89;34.07;98553.98;233507;1222;138498;-54
2022/06/22 16:34:00;;;;;;;15.20;8.70;;;;;;;24.83;34.21;98551.52;233214;1222;138610;-55
2022/06/22 16:39:03;;;;;;;6.40;1.40;;;;;;;24.76;34.28;98548.36;233438;1222;139845;-56
2022/06/22 16:44:11;;;;;;;2.90;1.30;;;;;;;24.76;34.37;98551.80;233582;1222;138734;-56
2022/06/22 16:49:43;;;;;;;3.40;1.10;;;;;;;24.72;34.38;98548.09;233532;1222;139247;-56
2022/06/22 16:55:02;;;;;;;1.60;0.90;;;;;;;24.65;34.40;98554.85;232754;1222;139772;-54
2022/06/22 17:00:12;;;;;;;5.80;1.20;;;;;;;24.60;34.61;98563.66;233013;1222;138417;-54
2022/06/22 17:05:26;;;;;;;4.90;1.30;;;;;;;24.57;34.71;98569.20;233472;1222;139129;-55
2022/06/22 17:10:48;;;;;;;2.70;0.90;;;;;;;24.49;34.76;98564.56;233507;1222;139047;-53
2022/06/22 17:16:08;;;;;;;6.10;1.50;;;;;;;24.46;34.92;98572.92;233159;1222;139027;-55
2022/06/22 17:21:36;;;;;;;3.90;1.00;;;;;;;24.41;34.92;98572.31;233003;1222;139578;-58
2022/06/22 17:27:13;;;;;;;7.00;1.30;;;;;;;24.37;35.12;98580.34;233443;1222;138298;-55
2022/06/22 17:32:25;;;;;;;3.20;1.50;;;;;;;24.39;35.31;98585.92;233426;1222;139252;-56
2022/06/22 17:37:38;;;;;;;6.90;1.80;;;;;;;24.43;35.50;98594.56;233613;1222;137975;-53
2022/06/22 17:42:51;;;;;;;6.40;3.00;;;;;;;24.43;35.65;98588.20;233228;1222;139282;-57
2022/06/22 17:48:04;;;;;;;5.00;2.40;;;;;;;24.41;35.94;98587.30;232592;1222;138271;-54
2022/06/22 17:53:15;;;;;;;51.80;35.70;;;;;;;24.39;36.13;98592.06;232581;1222;138816;-56
2022/06/22 17:58:33;;;;;;;9.30;6.30;;;;;;;24.38;36.75;98593.30;232657;1223;139067;-54
2022/06/22 18:03:48;;;;;;;4.30;2.80;;;;;;;24.35;37.43;98597.16;231596;1222;138636;-54
2022/06/22 18:09:07;;;;;;;9.30;2.70;;;;;;;24.28;37.92;98600.88;232347;1223;139155;-58
2022/06/22 18:14:17;;;;;;;4.20;2.10;;;;;;;24.26;37.99;98604.41;232596;1223;140080;-54
2022/06/22 18:19:42;;;;;;;4.20;1.70;;;;;;;24.21;38.13;98616.62;232598;1223;139008;-54
2022/06/22 18:24:52;;;;;;;2.80;1.30;;;;;;;24.16;38.02;98620.48;232425;1223;139057;-53
2022/06/22 18:30:01;;;;;;;15.50;10.60;;;;;;;24.08;37.84;98614.70;232413;1223;140270;-56
2022/06/22 18:35:31;;;;;;;6.60;3.90;;;;;;;24.02;38.20;98628.20;232307;1223;138932;-55
2022/06/22 18:46:27;;;;;;;7.00;3.60;;;;;;;24.00;37.82;98640.89;232822;1222;138999;-56
2022/06/22 18:51:44;;;;;;;5.00;1.70;;;;;;;23.92;37.71;98644.47;232680;1223;138486;-56
2022/06/22 18:56:57;;;;;;;4.20;1.30;;;;;;;23.80;37.55;98649.80;232483;1222;139082;-57
2022/06/22 19:02:16;;;;;;;3.30;1.60;;;;;;;23.70;37.74;98651.62;232823;1223;140064;-55
2022/06/22 19:07:19;;;;;;;153.70;120.50;;;;;;;23.61;37.77;98657.55;232958;1223;139285;-57
2022/06/22 19:12:38;;;;;;;20.10;16.20;;;;;;;23.53;37.91;98663.24;232592;1223;140960;-59
2022/06/22 19:18:06;;;;;;;9.70;4.40;;;;;;;23.44;37.97;98667.63;232454;1223;138939;-58
2022/06/22 19:23:25;;;;;;;321.70;258.50;;;;;;;23.31;38.11;98662.46;232549;1222;139829;-57
2022/06/22 19:28:47;;;;;;;14.00;10.30;;;;;;;23.17;37.92;98668.92;232316;1223;139099;-58
2022/06/22 19:34:26;;;;;;;5.80;2.50;;;;;;;22.92;38.00;98669.89;232539;1223;139045;-59
2022/06/22 19:40:01;;;;;;;11.20;2.10;;;;;;;22.62;38.33;98675.39;232749;1222;138767;-58
2022/06/22 19:45:32;;;;;;;7.20;2.30;;;;;;;22.39;38.70;98680.11;232613;1223;138930;-59
2022/06/22 19:51:12;;;;;;;10.30;2.00;;;;;;;22.21;39.08;98677.41;232843;1223;138919;-59
2022/06/22 19:56:27;;;;;;;9.70;2.60;;;;;;;22.05;39.33;98685.70;232524;1222;139032;-58
2022/06/22 20:01:38;;;;;;;7.70;2.60;;;;;;;21.90;39.75;98680.04;233178;1222;138480;-57
2022/06/22 20:06:48;;;;;;;4.50;2.10;;;;;;;21.79;39.94;98687.81;233031;1222;139337;-57
2022/06/22 20:11:55;;;;;;;6.10;2.20;;;;;;;21.68;40.28;98683.16;233258;1222;139735;-58
2022/06/22 20:17:05;;;;;;;7.30;2.10;;;;;;;21.58;40.52;98683.35;232705;1223;139182;-58
2022/06/22 20:22:41;;;;;;;12.50;2.50;;;;;;;21.47;40.74;98685.65;232576;1222;139170;-58
2022/06/22 20:28:33;;;;;;;6.40;2.50;;;;;;;21.38;41.06;98690.64;232536;1223;139529;-59
2022/06/22 20:34:00;;;;;;;5.90;2.40;;;;;;;21.24;41.51;98695.64;232496;1223;138742;-58
2022/06/22 20:39:04;;;;;;;8.70;3.00;;;;;;;21.11;41.79;98703.41;232323;1224;139202;-58
2022/06/22 20:44:36;;;;;;;11.20;2.50;;;;;;;20.98;42.13;98707.31;232585;1224;139185;-58
2022/06/22 20:50:09;;;;;;;7.90;3.10;;;;;;;20.86;42.63;98715.73;232445;1223;138833;-59
2022/06/22 20:55:31;;;;;;;9.20;2.90;;;;;;;20.74;43.06;98716.88;232888;1223;139022;-59
2022/06/22 21:00:38;;;;;;;8.90;3.30;;;;;;;20.63;43.43;98717.33;232387;1224;138710;-59
2022/06/22 21:05:49;;;;;;;9.90;3.40;;;;;;;20.53;43.87;98718.91;232403;1223;139089;-59
2022/06/22 21:11:20;;;;;;;8.60;3.30;;;;;;;20.42;44.16;98716.67;232107;1224;139170;-60
2022/06/22 21:16:34;;;;;;;8.50;3.40;;;;;;;20.33;44.63;98722.33;232401;1221;139150;-59
2022/06/22 21:21:52;;;;;;;9.30;3.30;;;;;;;20.26;44.83;98727.63;232630;1223;138901;-59
2022/06/22 21:27:10;;;;;;;9.20;3.30;;;;;;;20.18;45.21;98733.53;232426;1224;139427;-59
2022/06/22 21:32:20;;;;;;;8.00;3.30;;;;;;;20.11;45.40;98735.52;232490;1223;138896;-58
2022/06/22 21:37:35;;;;;;;8.70;3.20;;;;;;;20.01;45.71;98735.26;232382;1224;139045;-60
2022/06/22 21:42:59;;;;;;;7.40;3.90;;;;;;;19.93;46.01;98735.41;232242;1224;138770;-58
2022/06/22 21:48:17;;;;;;;12.60;3.40;;;;;;;19.86;46.33;98737.83;232834;1223;138639;-59
2022/06/22 21:53:31;;;;;;;10.20;3.50;;;;;;;19.76;46.60;98733.10;232836;1223;140261;-58
2022/06/22 21:59:02;;;;;;;9.90;3.50;;;;;;;19.68;46.85;98737.72;232479;1224;138804;-58
2022/06/22 22:04:39;;;;;;;8.80;3.30;;;;;;;19.59;47.01;98738.41;232396;1224;138945;-58
2022/06/22 22:10:09;;;;;;;10.80;3.80;;;;;;;19.50;47.38;98738.61;232522;1223;139259;-59
2022/06/22 22:15:20;;;;;;;8.10;3.80;;;;;;;19.40;47.57;98731.10;232963;1222;138902;-60
2022/06/22 22:20:37;;;;;;;9.50;3.90;;;;;;;19.31;47.95;98734.30;232687;1223;138869;-58
2022/06/22 22:25:49;;;;;;;10.50;3.70;;;;;;;19.22;48.07;98734.13;233225;1222;138706;-59
2022/06/22 22:30:57;;;;;;;9.70;3.50;;;;;;;19.17;48.55;98740.59;233169;1223;139005;-60
2022/06/22 22:36:05;;;;;;;8.60;3.60;;;;;;;19.12;48.89;98735.16;233206;1222;140431;-60
2022/06/22 22:41:14;;;;;;;11.70;3.20;;;;;;;19.09;48.95;98738.58;233002;1223;138893;-57
2022/06/22 22:46:27;;;;;;;5.20;3.00;;;;;;;19.03;49.21;98736.88;233231;1222;138667;-60
2022/06/22 22:51:39;;;;;;;8.30;3.80;;;;;;;18.95;49.41;98730.80;233380;1222;138430;-60
2022/06/22 22:56:49;;;;;;;10.90;4.00;;;;;;;18.89;49.55;98736.09;233349;1222;138468;-60
2022/06/22 23:30:32;;;;;;;10.00;3.40;;;;;;;18.48;50.27;98734.50;233182;1222;138925;-58
2022/06/22 23:35:41;;;;;;;8.10;3.80;;;;;;;18.42;50.43;98744.20;233234;1222;138850;-59
2022/06/22 23:40:48;;;;;;;12.20;3.70;;;;;;;18.37;50.45;98743.83;233075;1223;139018;-59
2022/06/22 23:45:54;;;;;;;12.80;4.10;;;;;;;18.30;50.58;98744.98;233042;1223;139508;-59
2022/06/22 23:51:09;;;;;;;11.80;4.00;;;;;;;18.22;50.87;98752.50;232989;1223;138444;-60
2022/06/22 23:56:18;;;;;;;8.90;4.00;;;;;;;18.12;50.98;98745.35;233484;1222;138691;-61
